createdAt,value
2023-03-31T00:00:13.189Z,11.40
2023-03-31T00:02:42.726Z,11.30
2023-03-31T00:05:10.228Z,11.20
2023-03-31T00:07:40.099Z,11.30
2023-03-31T00:10:17.299Z,11.30
2023-03-31T00:12:45.804Z,11.20
2023-03-31T00:15:12.867Z,11.20
2023-03-31T00:17:40.088Z,11.10
2023-03-31T00:20:12.473Z,11.00
2023-03-31T00:22:42.457Z,11.00
2023-03-31T00:25:14.102Z,11.00
2023-03-31T00:27:45.029Z,11.10
2023-03-31T00:30:15.758Z,11.10
2023-03-31T00:32:42.717Z,11.10
2023-03-31T00:35:09.897Z,11.10
2023-03-31T00:37:36.906Z,11.10
2023-03-31T00:40:10.092Z,11.10
2023-03-31T00:42:41.988Z,11.10
2023-03-31T00:45:14.887Z,11.10
2023-03-31T00:47:48.849Z,11.10
2023-03-31T00:50:30.063Z,11.00
2023-03-31T00:53:02.132Z,11.10
2023-03-31T00:55:37.861Z,11.10
2023-03-31T00:58:06.977Z,11.10
2023-03-31T01:00:33.813Z,11.10
2023-03-31T01:03:06.860Z,11.10
2023-03-31T01:05:56.152Z,11.20
2023-03-31T01:08:26.398Z,11.20
2023-03-31T01:11:01.067Z,11.20
2023-03-31T01:13:30.204Z,11.10
2023-03-31T01:15:57.605Z,11.10
2023-03-31T01:18:25.113Z,11.00
2023-03-31T01:21:03.769Z,11.10
2023-03-31T01:23:39.734Z,11.10
2023-03-31T01:26:21.531Z,10.90
2023-03-31T01:29:27.869Z,11.00
2023-03-31T01:32:14.173Z,10.90
2023-03-31T01:35:01.957Z,10.90
2023-03-31T01:37:31.652Z,10.90
2023-03-31T01:40:30.981Z,10.90
2023-03-31T01:43:06.787Z,10.90
2023-03-31T01:45:36.652Z,10.90
2023-03-31T01:48:30.157Z,10.80
2023-03-31T01:51:09.126Z,10.90
2023-03-31T01:54:03.545Z,10.80
2023-03-31T01:56:41.338Z,10.90
2023-03-31T01:59:23.962Z,10.90
2023-03-31T02:02:02.787Z,10.90
2023-03-31T02:04:35.644Z,10.80
2023-03-31T02:07:07.791Z,10.90
2023-03-31T02:09:39.242Z,10.80
2023-03-31T02:12:09.662Z,10.90
2023-03-31T02:14:44.575Z,10.90
2023-03-31T02:17:18.354Z,10.90
2023-03-31T02:19:51.010Z,10.90
2023-03-31T02:22:21.841Z,10.90
2023-03-31T02:24:50.647Z,10.90
2023-03-31T02:27:28.360Z,10.90
2023-03-31T02:29:56.304Z,10.80
2023-03-31T02:32:34.210Z,10.80
2023-03-31T02:35:01.393Z,10.80
2023-03-31T02:37:29.951Z,10.80
2023-03-31T02:40:00.128Z,10.80
2023-03-31T02:42:27.331Z,10.80
2023-03-31T02:44:54.805Z,10.80
2023-03-31T02:47:22.434Z,10.80
2023-03-31T02:49:56.191Z,10.70
2023-03-31T02:52:28.470Z,10.80
2023-03-31T02:55:11.779Z,10.80
2023-03-31T02:58:07.791Z,10.80
2023-03-31T03:00:56.322Z,10.80
2023-03-31T03:03:39.813Z,10.80
2023-03-31T03:06:25.174Z,10.70
2023-03-31T03:09:10.445Z,10.70
2023-03-31T03:12:15.327Z,10.80
2023-03-31T03:15:08.438Z,10.80
2023-03-31T03:17:43.245Z,10.90
2023-03-31T03:20:12.091Z,10.80
2023-03-31T03:22:40.652Z,10.90
2023-03-31T03:25:10.438Z,11.00
2023-03-31T03:27:38.003Z,11.00
2023-03-31T03:30:06.815Z,11.00
2023-03-31T03:32:33.892Z,11.00
2023-03-31T03:35:02.007Z,11.00
2023-03-31T03:37:29.823Z,11.10
2023-03-31T03:39:56.656Z,10.90
2023-03-31T03:42:23.511Z,11.00
2023-03-31T03:44:50.517Z,11.10
2023-03-31T03:47:17.400Z,11.00
2023-03-31T03:49:44.276Z,11.00
2023-03-31T03:52:11.062Z,10.90
2023-03-31T03:54:37.842Z,10.90
2023-03-31T03:57:04.694Z,10.90
2023-03-31T03:59:31.569Z,10.90
2023-03-31T04:01:58.651Z,10.90
2023-03-31T04:04:25.593Z,10.80
2023-03-31T04:06:52.454Z,10.80
2023-03-31T04:09:19.309Z,10.80
2023-03-31T04:11:46.160Z,10.80
2023-03-31T04:14:12.954Z,10.80
2023-03-31T04:16:40.637Z,10.80
2023-03-31T04:19:08.444Z,10.80
2023-03-31T04:21:35.375Z,10.70
2023-03-31T04:24:04.503Z,10.70
2023-03-31T04:26:42.998Z,10.70
2023-03-31T04:29:12.843Z,10.60
2023-03-31T04:31:42.941Z,10.70
2023-03-31T04:34:13.633Z,10.70
2023-03-31T04:36:42.787Z,10.60
2023-03-31T04:39:10.817Z,10.60
2023-03-31T04:41:37.713Z,10.50
2023-03-31T04:44:04.775Z,10.50
2023-03-31T04:46:32.628Z,10.50
2023-03-31T04:49:00.932Z,10.50
2023-03-31T04:51:27.930Z,10.50
2023-03-31T04:53:55.135Z,10.50
2023-03-31T04:56:23.124Z,10.60
2023-03-31T04:58:49.960Z,10.50
2023-03-31T05:01:19.820Z,10.50
2023-03-31T05:03:49.785Z,10.50
2023-03-31T05:06:17.366Z,10.50
2023-03-31T05:08:44.419Z,10.50
2023-03-31T05:11:11.516Z,10.60
2023-03-31T05:13:38.530Z,10.50
2023-03-31T05:16:10.877Z,10.50
2023-03-31T05:18:38.092Z,10.50
2023-03-31T05:21:19.472Z,10.50
2023-03-31T05:23:47.873Z,10.50
2023-03-31T05:26:15.437Z,10.50
2023-03-31T05:28:42.546Z,10.50
2023-03-31T05:31:11.209Z,10.60
2023-03-31T05:33:41.359Z,10.50
2023-03-31T05:36:10.432Z,10.40
2023-03-31T05:38:37.668Z,10.50
2023-03-31T05:41:04.479Z,10.50
2023-03-31T05:43:31.359Z,10.50
2023-03-31T05:45:58.252Z,10.50
2023-03-31T05:48:24.995Z,10.50
2023-03-31T05:50:51.855Z,10.50
2023-03-31T05:53:18.632Z,10.50
2023-03-31T05:55:45.798Z,10.50
2023-03-31T05:58:12.823Z,10.50
2023-03-31T06:00:39.667Z,10.50
2023-03-31T06:03:07.978Z,10.50
2023-03-31T06:05:35.648Z,10.50
2023-03-31T06:08:02.757Z,10.50
2023-03-31T06:10:29.795Z,10.50
2023-03-31T06:12:56.614Z,10.50
2023-03-31T06:15:23.423Z,10.40
2023-03-31T06:17:50.322Z,10.40
2023-03-31T06:20:27.163Z,10.50
2023-03-31T06:22:55.456Z,10.50
2023-03-31T06:25:22.316Z,10.40
2023-03-31T06:27:49.201Z,10.40
2023-03-31T06:30:16.063Z,10.40
2023-03-31T06:32:42.960Z,10.40
2023-03-31T06:35:10.098Z,10.40
2023-03-31T06:37:36.926Z,10.40
2023-03-31T06:40:04.767Z,10.40
2023-03-31T06:42:31.649Z,10.40
2023-03-31T06:44:58.437Z,10.40
2023-03-31T06:47:25.441Z,10.40
2023-03-31T06:49:52.328Z,10.50
2023-03-31T06:52:19.177Z,10.40
2023-03-31T06:54:46.026Z,10.50
2023-03-31T06:57:13.327Z,10.40
2023-03-31T06:59:40.234Z,10.40
2023-03-31T07:02:07.496Z,10.40
2023-03-31T07:04:34.379Z,10.40
2023-03-31T07:07:01.906Z,10.40
2023-03-31T07:09:28.801Z,10.50
2023-03-31T07:11:56.597Z,10.40
2023-03-31T07:14:23.877Z,10.50
2023-03-31T07:16:51.076Z,10.50
2023-03-31T07:19:19.224Z,10.50
2023-03-31T07:21:46.396Z,10.60
2023-03-31T07:24:13.173Z,10.60
2023-03-31T07:26:40.180Z,10.60
2023-03-31T07:29:06.968Z,10.60
2023-03-31T07:31:33.950Z,10.70
2023-03-31T07:34:03.020Z,10.80
2023-03-31T07:36:30.892Z,10.80
2023-03-31T07:38:58.197Z,10.80
2023-03-31T07:41:26.181Z,10.80
2023-03-31T07:43:53.060Z,10.90
2023-03-31T07:46:23.690Z,10.90
2023-03-31T07:48:51.540Z,11.00
2023-03-31T07:51:21.842Z,11.00
2023-03-31T07:53:52.642Z,11.20
2023-03-31T07:56:22.540Z,11.20
2023-03-31T07:58:52.355Z,11.20
2023-03-31T08:01:21.595Z,11.30
2023-03-31T08:03:49.477Z,11.30
2023-03-31T08:06:21.902Z,11.20
2023-03-31T08:08:49.596Z,11.20
2023-03-31T08:11:17.429Z,11.20
2023-03-31T08:13:44.270Z,11.20
2023-03-31T08:16:11.216Z,11.20
2023-03-31T08:18:38.179Z,11.20
2023-03-31T08:21:05.449Z,11.20
2023-03-31T08:23:32.411Z,11.20
2023-03-31T08:26:28.728Z,11.20
2023-03-31T08:28:59.061Z,11.30
2023-03-31T08:31:27.536Z,11.30
2023-03-31T08:33:54.975Z,11.40
2023-03-31T08:36:22.067Z,11.40
2023-03-31T08:38:49.781Z,11.50
2023-03-31T08:41:27.100Z,11.50
2023-03-31T08:43:57.434Z,11.50
2023-03-31T08:46:28.036Z,11.60
2023-03-31T08:48:57.651Z,11.60
2023-03-31T08:51:41.417Z,11.60
2023-03-31T08:54:16.446Z,11.70
2023-03-31T08:56:47.779Z,11.80
2023-03-31T08:59:31.414Z,11.80
2023-03-31T09:02:25.008Z,11.90
2023-03-31T09:05:02.796Z,12.00
2023-03-31T09:07:51.937Z,12.10
2023-03-31T09:10:51.136Z,12.10
2023-03-31T09:13:29.733Z,12.20
2023-03-31T09:16:16.806Z,12.20
2023-03-31T09:18:46.889Z,12.30
2023-03-31T09:21:51.791Z,12.30
2023-03-31T09:24:23.886Z,12.30
2023-03-31T09:27:01.963Z,12.40
2023-03-31T09:29:54.508Z,12.30
2023-03-31T09:32:31.145Z,12.40
2023-03-31T09:35:03.139Z,12.50
2023-03-31T09:37:33.409Z,12.40
2023-03-31T09:40:07.413Z,12.50
2023-03-31T09:42:36.034Z,12.40
2023-03-31T09:45:03.808Z,12.40
2023-03-31T09:47:43.226Z,12.40
2023-03-31T09:50:11.317Z,12.40
2023-03-31T09:53:08.535Z,12.60
2023-03-31T09:55:47.508Z,12.60
2023-03-31T09:58:17.051Z,12.60
2023-03-31T10:01:07.006Z,12.70
2023-03-31T10:03:41.720Z,12.70
2023-03-31T10:06:14.556Z,12.70
2023-03-31T10:09:05.614Z,12.70
2023-03-31T10:11:32.776Z,12.70
2023-03-31T10:14:01.868Z,12.70
2023-03-31T10:16:31.266Z,12.70
2023-03-31T10:19:32.238Z,12.80
2023-03-31T10:22:00.810Z,12.90
2023-03-31T10:24:40.180Z,12.90
2023-03-31T10:27:28.176Z,12.90
2023-03-31T10:30:00.361Z,12.90
2023-03-31T10:32:31.936Z,12.90
2023-03-31T10:35:20.080Z,12.90
2023-03-31T10:37:49.602Z,12.90
2023-03-31T10:40:25.260Z,12.90
2023-03-31T10:43:03.428Z,12.90
2023-03-31T10:45:38.400Z,12.90
2023-03-31T10:48:16.675Z,12.90
2023-03-31T10:50:43.561Z,12.80
2023-03-31T10:53:15.485Z,12.70
2023-03-31T10:56:19.582Z,12.60
2023-03-31T10:59:14.873Z,12.60
2023-03-31T11:01:50.803Z,12.60
2023-03-31T11:04:26.637Z,12.70
2023-03-31T11:07:16.649Z,12.80
2023-03-31T11:09:49.120Z,12.80
2023-03-31T11:12:23.393Z,12.70
2023-03-31T11:15:25.735Z,12.80
2023-03-31T11:18:04.079Z,12.80
2023-03-31T11:20:42.243Z,12.90
2023-03-31T11:23:29.023Z,12.90
2023-03-31T11:26:11.555Z,12.90
2023-03-31T11:29:03.143Z,13.00
2023-03-31T11:32:00.756Z,13.00
2023-03-31T11:35:04.491Z,13.00
2023-03-31T11:37:50.614Z,13.10
2023-03-31T11:40:32.449Z,13.10
2023-03-31T11:43:30.538Z,13.10
2023-03-31T11:46:22.454Z,13.10
2023-03-31T11:48:59.220Z,13.10
2023-03-31T11:51:37.527Z,13.10
2023-03-31T11:54:12.306Z,13.10
2023-03-31T11:56:41.366Z,13.10
2023-03-31T11:59:14.327Z,13.00
2023-03-31T12:02:19.016Z,13.00
2023-03-31T12:04:54.020Z,13.00
2023-03-31T12:07:34.345Z,13.00
2023-03-31T12:10:14.080Z,13.00
2023-03-31T12:13:01.224Z,13.00
2023-03-31T12:15:40.161Z,13.00
2023-03-31T12:18:18.068Z,12.90
2023-03-31T12:20:51.097Z,12.90
2023-03-31T12:23:21.495Z,12.90
2023-03-31T12:26:08.228Z,13.00
2023-03-31T12:28:38.269Z,13.00
2023-03-31T12:31:09.758Z,13.00
2023-03-31T12:33:45.120Z,13.00
2023-03-31T12:36:36.738Z,12.90
2023-03-31T12:39:19.540Z,13.00
2023-03-31T12:42:01.293Z,13.10
2023-03-31T12:44:28.045Z,13.00
2023-03-31T12:47:06.673Z,13.00
2023-03-31T12:50:01.644Z,13.00
2023-03-31T12:52:55.420Z,13.00
2023-03-31T12:55:40.636Z,13.10
2023-03-31T12:58:32.508Z,13.10
2023-03-31T13:01:15.061Z,13.10
2023-03-31T13:04:10.297Z,13.00
2023-03-31T13:06:37.161Z,12.90
2023-03-31T13:09:13.748Z,12.70
2023-03-31T13:11:44.841Z,12.50
2023-03-31T13:14:17.394Z,12.60
2023-03-31T13:16:44.432Z,12.50
2023-03-31T13:19:23.919Z,12.40
2023-03-31T13:21:54.975Z,12.40
2023-03-31T13:24:26.576Z,12.30
2023-03-31T13:26:56.656Z,12.40
2023-03-31T13:29:26.699Z,12.40
2023-03-31T13:32:02.826Z,12.40
2023-03-31T13:34:53.037Z,12.40
2023-03-31T13:37:58.290Z,12.40
2023-03-31T13:40:37.789Z,12.40
2023-03-31T13:43:34.715Z,12.40
2023-03-31T13:46:23.518Z,12.40
2023-03-31T13:48:55.830Z,12.30
2023-03-31T13:51:53.613Z,12.30
2023-03-31T13:54:54.023Z,12.40
2023-03-31T13:57:20.937Z,12.30
2023-03-31T13:59:55.836Z,12.40
2023-03-31T14:02:43.088Z,12.30
2023-03-31T14:05:36.441Z,12.30
2023-03-31T14:08:19.012Z,12.30
2023-03-31T14:10:46.107Z,12.20
2023-03-31T14:13:18.258Z,12.20
2023-03-31T14:15:54.282Z,12.20
2023-03-31T14:18:34.176Z,12.10
2023-03-31T14:21:04.000Z,12.00
2023-03-31T14:23:54.998Z,12.00
2023-03-31T14:26:46.850Z,11.80
2023-03-31T14:29:31.473Z,11.70
2023-03-31T14:32:31.928Z,11.80
2023-03-31T14:35:24.059Z,11.70
2023-03-31T14:37:51.208Z,11.80
2023-03-31T14:40:18.953Z,11.90
2023-03-31T14:42:49.846Z,11.90
2023-03-31T14:45:22.001Z,11.80
2023-03-31T14:48:02.868Z,11.90
2023-03-31T14:50:36.389Z,11.90
2023-03-31T14:53:04.977Z,11.80
2023-03-31T14:55:49.787Z,11.70
2023-03-31T14:58:27.816Z,11.60
2023-03-31T15:00:55.099Z,11.70
2023-03-31T15:03:22.157Z,11.50
2023-03-31T15:05:49.861Z,11.50
2023-03-31T15:08:22.836Z,11.50
2023-03-31T15:10:58.962Z,11.60
2023-03-31T15:13:40.958Z,11.60
2023-03-31T15:16:45.027Z,11.60
2023-03-31T15:19:17.014Z,11.60
2023-03-31T15:21:44.736Z,11.50
2023-03-31T15:24:15.511Z,11.50
2023-03-31T15:26:52.562Z,11.40
2023-03-31T15:29:45.111Z,11.40
2023-03-31T15:32:32.691Z,11.30
2023-03-31T15:35:10.993Z,11.30
2023-03-31T15:37:47.651Z,11.30
2023-03-31T15:40:25.018Z,11.20
2023-03-31T15:43:24.261Z,11.20
2023-03-31T15:45:52.394Z,11.10
2023-03-31T15:48:34.348Z,11.00
2023-03-31T15:51:05.849Z,11.00
2023-03-31T15:53:38.740Z,11.00
2023-03-31T15:56:06.848Z,11.00
2023-03-31T15:58:57.201Z,11.00
2023-03-31T16:01:29.430Z,10.90
2023-03-31T16:03:57.131Z,11.00
2023-03-31T16:06:36.887Z,11.00
2023-03-31T16:09:10.637Z,11.00
2023-03-31T16:11:50.843Z,11.00
2023-03-31T16:14:17.653Z,11.00
2023-03-31T16:16:51.805Z,11.00
2023-03-31T16:19:20.890Z,11.00
2023-03-31T16:21:52.783Z,10.90
2023-03-31T16:24:21.404Z,10.90
2023-03-31T16:26:49.205Z,10.90
2023-03-31T16:29:22.863Z,10.90
2023-03-31T16:31:49.981Z,10.80
2023-03-31T16:34:16.931Z,10.80
2023-03-31T16:36:43.748Z,10.70
2023-03-31T16:39:10.599Z,10.70
2023-03-31T16:41:38.322Z,10.60
2023-03-31T16:44:06.403Z,10.60
2023-03-31T16:46:33.611Z,10.60
2023-03-31T16:49:00.882Z,10.60
2023-03-31T16:51:27.745Z,10.70
2023-03-31T16:53:55.562Z,10.70
2023-03-31T16:56:24.409Z,10.70
2023-03-31T16:58:51.766Z,10.70
2023-03-31T17:01:18.827Z,10.80
2023-03-31T17:03:48.004Z,10.70
2023-03-31T17:06:14.949Z,10.70
2023-03-31T17:08:41.870Z,10.60
2023-03-31T17:11:11.666Z,10.70
2023-03-31T17:13:39.735Z,10.60
2023-03-31T17:16:17.384Z,10.60
2023-03-31T17:18:46.370Z,10.60
2023-03-31T17:21:15.730Z,10.60
2023-03-31T17:23:42.820Z,10.50
2023-03-31T17:26:12.697Z,10.50
2023-03-31T17:28:40.399Z,10.50
2023-03-31T17:31:15.619Z,10.50
2023-03-31T17:33:43.730Z,10.40
2023-03-31T17:36:11.328Z,10.40
2023-03-31T17:38:39.755Z,10.40
2023-03-31T17:41:08.923Z,10.50
2023-03-31T17:43:36.218Z,10.40
2023-03-31T17:46:09.887Z,10.40
2023-03-31T17:48:38.705Z,10.40
2023-03-31T17:51:07.720Z,10.30
2023-03-31T17:53:35.671Z,10.30
2023-03-31T17:56:04.308Z,10.30
2023-03-31T17:58:32.340Z,10.40
2023-03-31T18:00:59.791Z,10.30
2023-03-31T18:03:29.964Z,10.30
2023-03-31T18:05:57.064Z,10.40
2023-03-31T18:08:23.957Z,10.30
2023-03-31T18:10:50.845Z,10.30
2023-03-31T18:13:17.662Z,10.20
2023-03-31T18:15:52.622Z,10.30
2023-03-31T18:18:20.780Z,10.30
2023-03-31T18:20:47.976Z,10.20
2023-03-31T18:23:15.077Z,10.20
2023-03-31T18:25:46.405Z,10.20
2023-03-31T18:28:15.293Z,10.20
2023-03-31T18:30:43.585Z,10.20
2023-03-31T18:33:20.380Z,10.20
2023-03-31T18:35:48.381Z,10.30
2023-03-31T18:38:16.552Z,10.30
2023-03-31T18:40:50.926Z,10.30
2023-03-31T18:43:24.510Z,10.30
2023-03-31T18:45:53.616Z,10.20
2023-03-31T18:48:25.398Z,10.30
2023-03-31T18:50:53.653Z,10.20
2023-03-31T18:53:21.913Z,10.30
2023-03-31T18:55:57.537Z,10.20
2023-03-31T18:58:25.670Z,10.30
2023-03-31T19:00:52.795Z,10.20
2023-03-31T19:03:19.728Z,10.20
2023-03-31T19:05:46.863Z,10.20
2023-03-31T19:08:13.764Z,10.20
2023-03-31T19:10:40.528Z,10.20
2023-03-31T19:13:07.804Z,10.20
2023-03-31T19:15:37.143Z,10.20
2023-03-31T19:18:04.335Z,10.20
2023-03-31T19:20:31.081Z,10.20
2023-03-31T19:22:58.167Z,10.20
2023-03-31T19:25:25.016Z,10.30
2023-03-31T19:27:51.898Z,10.30
2023-03-31T19:30:22.134Z,10.30
2023-03-31T19:32:49.857Z,10.20
2023-03-31T19:35:18.167Z,10.20
2023-03-31T19:37:45.732Z,10.30
2023-03-31T19:40:12.864Z,10.30
2023-03-31T19:42:41.957Z,10.20
2023-03-31T19:45:09.283Z,10.20
2023-03-31T19:47:36.603Z,10.30
2023-03-31T19:50:04.045Z,10.20
2023-03-31T19:52:30.946Z,10.20
2023-03-31T19:54:57.870Z,10.20
2023-03-31T19:57:24.771Z,10.20
2023-03-31T19:59:51.741Z,10.20
2023-03-31T20:02:18.907Z,10.20
2023-03-31T20:04:46.064Z,10.20
2023-03-31T20:07:13.648Z,10.20
2023-03-31T20:09:40.843Z,10.20
2023-03-31T20:12:07.698Z,10.20
2023-03-31T20:14:34.572Z,10.20
2023-03-31T20:17:03.187Z,10.20
2023-03-31T20:19:30.101Z,10.20
2023-03-31T20:21:57.903Z,10.20
2023-03-31T20:24:24.895Z,10.20
2023-03-31T20:26:51.939Z,10.20
2023-03-31T20:29:19.011Z,10.30
2023-03-31T20:31:46.185Z,10.20
2023-03-31T20:34:15.684Z,10.20
2023-03-31T20:36:44.633Z,10.20
2023-03-31T20:39:14.430Z,10.20
2023-03-31T20:41:42.085Z,10.20
2023-03-31T20:44:13.418Z,10.20
2023-03-31T20:46:43.359Z,10.20
2023-03-31T20:49:10.324Z,10.20
2023-03-31T20:51:37.812Z,10.20
2023-03-31T20:54:06.169Z,10.20
2023-03-31T20:56:36.958Z,10.20
2023-03-31T20:59:04.992Z,10.20
2023-03-31T21:01:34.021Z,10.20
2023-03-31T21:04:02.407Z,10.10
2023-03-31T21:06:32.697Z,10.20
2023-03-31T21:08:59.774Z,10.10
2023-03-31T21:11:27.473Z,10.20
2023-03-31T21:13:54.617Z,10.10
2023-03-31T21:16:21.673Z,10.20
2023-03-31T21:18:48.832Z,10.20
2023-03-31T21:21:18.913Z,10.10
2023-03-31T21:23:46.830Z,10.20
2023-03-31T21:26:15.707Z,10.20
2023-03-31T21:28:43.263Z,10.20
2023-03-31T21:31:17.117Z,10.20
2023-03-31T21:33:46.487Z,10.20
2023-03-31T21:36:16.376Z,10.10
2023-03-31T21:38:43.399Z,10.10
2023-03-31T21:41:15.444Z,10.10
2023-03-31T21:43:42.634Z,10.10
2023-03-31T21:46:12.268Z,10.10
2023-03-31T21:48:39.168Z,10.10
2023-03-31T21:51:06.101Z,10.10
2023-03-31T21:53:33.053Z,10.10
2023-03-31T21:56:00.247Z,10.10
2023-03-31T21:58:29.201Z,10.10
2023-03-31T22:01:04.101Z,10.10
2023-03-31T22:03:34.363Z,10.10
2023-03-31T22:06:09.609Z,10.10
2023-03-31T22:08:37.598Z,10.10
2023-03-31T22:11:06.256Z,10.10
2023-03-31T22:13:34.092Z,10.10
2023-03-31T22:16:02.123Z,10.10
2023-03-31T22:18:30.556Z,10.10
2023-03-31T22:20:57.941Z,10.10
2023-03-31T22:23:25.847Z,10.10
2023-03-31T22:25:52.769Z,10.10
2023-03-31T22:28:19.650Z,10.10
2023-03-31T22:30:46.483Z,10.10
2023-03-31T22:33:13.438Z,10.10
2023-03-31T22:35:40.366Z,10.10
2023-03-31T22:38:08.539Z,10.10
2023-03-31T22:40:36.343Z,10.10
2023-03-31T22:43:03.938Z,10.10
2023-03-31T22:45:31.198Z,10.10
2023-03-31T22:47:58.323Z,10.10
2023-03-31T22:50:25.257Z,10.10
2023-03-31T22:52:52.176Z,10.10
2023-03-31T22:55:19.297Z,10.10
2023-03-31T22:57:46.744Z,10.00
2023-03-31T23:00:14.082Z,10.10
2023-03-31T23:02:41.481Z,10.10
2023-03-31T23:05:08.921Z,10.10
2023-03-31T23:07:36.297Z,10.00
2023-03-31T23:10:03.435Z,10.00
2023-03-31T23:12:30.480Z,10.00
2023-03-31T23:14:57.284Z,10.10
2023-03-31T23:17:24.349Z,10.00
2023-03-31T23:19:51.354Z,10.00
2023-03-31T23:22:18.952Z,10.00
2023-03-31T23:24:45.852Z,10.00
2023-03-31T23:27:12.695Z,10.00
2023-03-31T23:29:39.495Z,10.00
2023-03-31T23:32:06.425Z,10.00
2023-03-31T23:34:33.281Z,10.00
2023-03-31T23:37:00.311Z,10.00
2023-03-31T23:39:27.308Z,10.00
2023-03-31T23:41:54.195Z,10.00
2023-03-31T23:44:21.200Z,10.00
2023-03-31T23:46:48.055Z,10.00
2023-03-31T23:49:14.949Z,10.00
2023-03-31T23:51:41.964Z,10.00
2023-03-31T23:54:08.938Z,10.00
2023-03-31T23:56:35.945Z,10.10
2023-03-31T23:59:02.908Z,10.00
